Flight EZE74G

  • Submitted By: Dave Hardy
  • Departure Airport: Aberdeen / Dyce (EGPD)
  • Arrival Airport: Leeds Bradford (EGNM)
  • Aircraft: SB20 (G-CDEA)
  • Flight Time: 0.45
  • Date Submitted: 05/17/2009
  • Status: Accepted
Flight Details
Gross Revenue:
(39 load / £ 0.00 per unit
£ 0.00
Fuel Cost:
(1984 fuel used @ 0 / unit)
£ 0.00

Flight Details

  • VATAWARE Link: -

Additional Log Information:

View Log

[2009/05/17 12:21:00]
Flight IATA:EZE74G
Pilot Number:EZE0001
Company ICAO:EZE
Aircraft Type:SB20
PAX:39
Aircraft Registration:SB20
Departing Airport: EGPD
Destination Airport: EGNM
Online: VATSIM
Route:ADN P18 GASKO Y250 OBOXA
Flight Level:22000
12:21 Zero fuel Weight: 39783 Lbs, Fuel Weight: 10273 Lbs
12:21 VATSIM:EGPD 171250Z 16011KT 120V190 9999 FEW029 12/05 Q1006 NOSIG
12:21 VATSIM:EGNM 171250Z 12016KT 090V170 9999 BKN022 11/06 Q1002
12:28 Parking Brakes off
12:28 Com1 Freq=122.80
12:31 VR= 158 Knots
12:31 V2= 170 Knots
12:31 Take-off
12:31 Take off Weight: 49878 Lbs
12:31 Wind: 167 @ 011 Knots Heading: 158
12:31 POS N57 12 01 W002 11 48
12:31 N11 128 N12 128
12:31 Gear Up: 173 Knots
12:31 Flaps: at 173 Knots
12:36 Flaps:Up at 227 Knots
12:42 TOC
12:42 Fuel Weight: 9372 Lb
12:46 Wind:178@031 Knots Heading: 169 Ground Speed: 336 Knots Altitude 21738 ft
12:59 TOD
12:59 Fuel Weight: 8606 Lb
13:01 Wind:167@018 Knots Heading: 176 Ground Speed: 339 Knots Altitude 19566 ft
13:09 Flaps: at 263 Knots
13:09 Flaps: at 229 Knots
13:10 Gear Down: 190 Knots
13:10 Flaps: at 178 Knots
13:11 Flaps: at 137 Knots
13:12 TouchDown:Rate -391 ft/min Speed: 126 Knots
13:12 VATSIM:EGNM 171350Z 12012KT 7000 -SHRA FEW007 BKN010 09/08 Q1002
13:12 Land
13:12 Wind:126@014 Knots
13:12 Heading: 138
13:12 Flight Duration: 00:41
13:12 Landing Weight: 48103 Lbs
13:12 POS N53 52 00 W001 39 40
13:13 Parking brakes on
13:13 Block to Block Duration: 00:45
13:13 Final Fuel: 8289 Lbls
13:13 Spent Fuel: 1984 Lbls
13:13 Flight Length: 200 NM
13:13 TOD Land Length: 57 NM

Route Map